Time;durP1;ratioP1;P1;durP2;ratioP2;P2;SDS_P1;SDS_P2;PMS_P1;PMS_P2;Temp;Humidity;BMP_temperature;BMP_pressure;BME280_temperature;BME280_humidity;BME280_pressure;Samples;Min_cycle;Max_cycle;Signal;HPM_P1;HPM_P2
2022/07/22 00:00:14;;;;;;;6.70;4.68;;;22.50;95.60;;;;;;5078282;28;20464;-88
2022/07/22 00:02:40;;;;;;;8.02;5.35;;;22.50;95.70;;;;;;5077920;28;20039;-88
2022/07/22 00:05:07;;;;;;;7.95;5.10;;;22.40;96.00;;;;;;5096402;28;20020;-89
2022/07/22 00:07:33;;;;;;;7.88;4.82;;;22.50;96.10;;;;;;5077748;28;20464;-88
2022/07/22 00:09:59;;;;;;;7.40;5.18;;;22.50;96.00;;;;;;5078029;28;20043;-89
2022/07/22 00:12:24;;;;;;;11.27;5.13;;;22.50;96.00;;;;;;5078321;28;20032;-88
2022/07/22 00:14:50;;;;;;;6.93;5.13;;;22.60;96.10;;;;;;5077911;28;20039;-89
2022/07/22 00:17:16;;;;;;;8.88;5.25;;;22.60;96.20;;;;;;5078313;28;20028;-89
2022/07/22 00:19:41;;;;;;;6.68;5.07;;;22.60;96.40;;;;;;5077552;28;20380;-89
2022/07/22 00:22:07;;;;;;;5.22;4.63;;;22.50;96.90;;;;;;5096155;28;20024;-88
2022/07/22 00:24:33;;;;;;;7.43;4.70;;;22.40;96.70;;;;;;5096199;28;20032;-89
2022/07/22 00:26:59;;;;;;;5.80;4.65;;;22.40;96.80;;;;;;5051527;28;1271044;-89
2022/07/22 00:29:25;;;;;;;7.40;5.03;;;22.40;97.00;;;;;;5097044;28;20096;-88
2022/07/22 00:31:50;;;;;;;6.25;4.78;;;22.40;97.00;;;;;;5078651;28;20125;-88
2022/07/22 00:34:16;;;;;;;6.47;4.97;;;22.40;97.10;;;;;;5097002;28;20106;-89
2022/07/22 00:36:42;;;;;;;7.93;5.28;;;22.40;97.30;;;;;;5078634;28;20070;-88
2022/07/22 00:39:07;;;;;;;8.70;5.50;;;22.40;97.60;;;;;;5078707;28;20397;-88
2022/07/22 00:41:33;;;;;;;6.35;4.97;;;22.30;97.80;;;;;;5096722;28;20024;-88
2022/07/22 00:44:07;;;;;;;8.07;5.18;;;22.20;98.00;;;;;;5078766;28;20388;-88
2022/07/22 00:46:34;;;;;;;6.65;5.40;;;22.20;98.00;;;;;;5078961;28;20024;-89
2022/07/22 00:49:00;;;;;;;7.63;5.60;;;22.30;98.10;;;;;;5078653;28;20023;-87
2022/07/22 00:51:27;;;;;;;7.40;4.78;;;22.30;98.40;;;;;;5078678;28;20119;-88
2022/07/22 00:53:54;;;;;;;9.63;5.78;;;22.20;98.30;;;;;;5078153;28;20389;-88
2022/07/22 00:56:20;;;;;;;6.65;5.18;;;22.10;98.50;;;;;;5078532;28;20036;-88
2022/07/22 00:58:49;;;;;;;6.93;5.18;;;22.10;98.60;;;;;;5095723;28;20035;-88
2022/07/22 01:01:15;;;;;;;6.90;4.90;;;22.10;98.60;;;;;;5078316;28;20072;-88
2022/07/22 01:03:41;;;;;;;7.35;4.85;;;22.10;98.70;;;;;;5077815;28;20362;-88
2022/07/22 01:06:07;;;;;;;7.22;5.38;;;22.10;98.90;;;;;;5078379;28;20027;-89
2022/07/22 01:08:33;;;;;;;6.22;5.05;;;22.10;99.00;;;;;;5078301;28;20059;-88
2022/07/22 01:11:08;;;;;;;8.77;5.30;;;22.00;99.20;;;;;;5077768;28;20024;-88
2022/07/22 01:13:34;;;;;;;7.03;5.90;;;21.90;99.50;;;;;;5078372;28;20024;-88
2022/07/22 01:16:00;;;;;;;8.32;6.28;;;21.80;99.70;;;;;;5095801;28;20115;-89
2022/07/22 01:18:25;;;;;;;17.15;6.65;;;21.80;99.90;;;;;;5078268;28;20035;-88
2022/07/22 01:20:51;;;;;;;7.00;5.35;;;21.70;99.90;;;;;;5077724;28;20431;-89
2022/07/22 01:23:16;;;;;;;7.63;5.70;;;21.70;99.90;;;;;;5077590;28;20036;-88
2022/07/22 01:25:42;;;;;;;9.23;5.30;;;21.60;99.90;;;;;;5095648;28;20028;-88
2022/07/22 01:28:08;;;;;;;7.90;5.15;;;21.60;99.90;;;;;;5077378;28;20071;-89
2022/07/22 01:30:33;;;;;;;7.32;4.95;;;21.50;99.90;;;;;;5077625;28;20096;-88
2022/07/22 01:32:59;;;;;;;7.15;5.68;;;21.50;99.90;;;;;;5077307;28;20111;-88
2022/07/22 01:35:24;;;;;;;6.88;5.35;;;21.50;99.90;;;;;;5077681;28;20028;-89
2022/07/22 01:37:50;;;;;;;10.50;5.82;;;21.50;99.90;;;;;;5095339;28;20034;-89
2022/07/22 01:40:16;;;;;;;11.02;6.20;;;21.60;99.90;;;;;;5077528;28;20029;-88
2022/07/22 01:42:41;;;;;;;7.63;5.80;;;21.60;99.90;;;;;;5077224;28;20032;-88
2022/07/22 01:45:08;;;;;;;8.73;5.40;;;21.60;99.90;;;;;;5077751;28;20024;-88
2022/07/22 01:47:33;;;;;;;9.63;5.55;;;21.60;99.90;;;;;;5095324;28;20067;-88
2022/07/22 01:49:59;;;;;;;7.85;5.28;;;21.60;99.90;;;;;;5095034;28;20051;-89
2022/07/22 01:52:25;;;;;;;8.07;5.63;;;21.70;99.90;;;;;;5076923;28;20024;-89
2022/07/22 01:54:50;;;;;;;7.40;5.28;;;21.70;99.90;;;;;;5077103;28;20102;-89
2022/07/22 01:57:16;;;;;;;10.05;6.03;;;21.60;99.90;;;;;;5095578;28;20024;-89
2022/07/22 01:59:41;;;;;;;7.93;5.70;;;21.70;99.90;;;;;;5076423;28;20526;-88
2022/07/22 02:02:07;;;;;;;8.68;5.15;;;21.70;99.90;;;;;;5095184;28;20028;-89
2022/07/22 02:04:33;;;;;;;9.48;5.25;;;21.70;99.90;;;;;;5077455;28;20373;-89
2022/07/22 02:06:58;;;;;;;9.40;5.30;;;21.70;99.90;;;;;;5094782;28;20130;-90
2022/07/22 02:09:24;;;;;;;7.18;5.30;;;21.70;99.90;;;;;;5095049;28;20036;-89
2022/07/22 02:11:49;;;;;;;7.28;5.22;;;21.60;99.90;;;;;;5094815;28;20449;-88
2022/07/22 02:14:15;;;;;;;8.73;5.32;;;21.60;99.90;;;;;;5076900;28;20028;-89
2022/07/22 02:16:41;;;;;;;9.68;5.30;;;21.60;99.90;;;;;;5094483;28;20032;-89
2022/07/22 02:19:06;;;;;;;8.27;5.28;;;21.60;99.90;;;;;;5076704;28;20024;-88
2022/07/22 02:21:32;;;;;;;8.18;5.20;;;21.60;99.90;;;;;;5094934;28;20107;-89
2022/07/22 02:23:58;;;;;;;7.00;5.47;;;21.60;99.90;;;;;;5094486;28;20127;-87
2022/07/22 02:26:23;;;;;;;14.40;5.43;;;21.60;99.90;;;;;;5076824;28;20048;-89
2022/07/22 02:28:49;;;;;;;7.22;5.38;;;21.60;99.90;;;;;;5076259;28;20020;-88
2022/07/22 02:31:14;;;;;;;8.80;5.55;;;21.60;99.90;;;;;;5094634;28;20028;-88
2022/07/22 02:33:40;;;;;;;7.90;4.72;;;21.60;99.90;;;;;;5076613;28;20118;-88
2022/07/22 02:36:06;;;;;;;6.95;4.53;;;21.60;99.90;;;;;;5076710;28;20043;-88
2022/07/22 02:38:32;;;;;;;7.18;4.80;;;21.60;99.90;;;;;;5076506;28;20469;-88
2022/07/22 02:40:57;;;;;;;8.20;4.70;;;21.50;99.90;;;;;;5076515;28;20031;-88
2022/07/22 02:43:23;;;;;;;7.18;5.20;;;21.50;99.90;;;;;;5076723;28;20032;-88
2022/07/22 02:45:48;;;;;;;7.57;4.97;;;21.50;99.90;;;;;;5076319;28;20077;-88
2022/07/22 02:48:14;;;;;;;10.55;5.60;;;21.40;99.90;;;;;;5094143;28;20066;-89
2022/07/22 02:50:48;;;;;;;6.78;4.88;;;21.30;99.90;;;;;;5094391;28;20038;-88
2022/07/22 02:53:14;;;;;;;7.90;5.47;;;21.20;99.90;;;;;;5076766;28;20024;-89
2022/07/22 02:55:40;;;;;;;7.85;5.43;;;21.10;99.90;;;;;;5076814;28;20055;-88
2022/07/22 02:58:07;;;;;;;9.05;5.43;;;21.00;99.90;;;;;;5075729;28;20457;-88
2022/07/22 03:00:33;;;;;;;8.30;5.20;;;20.90;99.90;;;;;;5076118;28;20028;-88
2022/07/22 03:02:59;;;;;;;7.97;5.45;;;20.90;99.90;;;;;;5092910;28;20032;-88
2022/07/22 03:05:24;;;;;;;9.95;5.25;;;21.00;99.90;;;;;;5076672;28;20487;-88
2022/07/22 03:07:50;;;;;;;8.20;5.38;;;20.90;99.90;;;;;;5076041;28;20480;-88
2022/07/22 03:10:16;;;;;;;9.70;5.88;;;20.90;99.90;;;;;;5076511;28;20040;-88
2022/07/22 03:12:42;;;;;;;7.38;5.40;;;20.90;99.90;;;;;;5076275;28;20038;-88
2022/07/22 03:15:07;;;;;;;8.38;5.82;;;20.90;99.90;;;;;;5093560;28;20559;-88
2022/07/22 03:17:34;;;;;;;9.32;5.70;;;20.70;99.90;;;;;;5076072;28;20024;-88
2022/07/22 03:20:05;;;;;;;8.45;5.68;;;20.70;99.90;;;;;;5075936;28;20035;-88
2022/07/22 03:22:30;;;;;;;7.35;5.25;;;20.60;99.90;;;;;;5076389;28;20063;-87
2022/07/22 03:24:56;;;;;;;8.10;5.93;;;20.60;99.90;;;;;;5075756;28;20020;-88
2022/07/22 03:27:22;;;;;;;7.13;5.65;;;20.50;99.90;;;;;;5075957;28;20048;-87
2022/07/22 03:29:47;;;;;;;7.18;5.20;;;20.50;99.90;;;;;;5075661;28;20028;-88
2022/07/22 03:32:13;;;;;;;7.18;5.43;;;20.50;99.90;;;;;;5093970;28;20056;-88
2022/07/22 03:34:39;;;;;;;9.10;5.53;;;20.50;99.90;;;;;;5075877;28;20028;-88
2022/07/22 03:37:05;;;;;;;7.68;5.82;;;20.50;99.90;;;;;;5075562;28;20220;-88
2022/07/22 03:39:30;;;;;;;8.23;5.13;;;20.50;99.90;;;;;;5076385;28;20028;-88
2022/07/22 03:41:56;;;;;;;6.50;5.38;;;20.50;99.90;;;;;;5075262;28;20073;-88
2022/07/22 03:44:21;;;;;;;6.82;5.50;;;20.50;99.90;;;;;;5076037;28;20032;-88
2022/07/22 03:46:47;;;;;;;8.27;5.35;;;20.50;99.90;;;;;;5075528;28;20119;-88
2022/07/22 03:49:13;;;;;;;8.38;5.60;;;20.40;99.90;;;;;;5076029;28;20035;-89
2022/07/22 03:51:38;;;;;;;7.57;5.65;;;20.40;99.90;;;;;;5076099;28;20031;-89
2022/07/22 03:54:04;;;;;;;7.63;5.05;;;20.40;99.90;;;;;;5075380;28;20028;-88
2022/07/22 03:56:30;;;;;;;7.82;5.20;;;20.40;99.90;;;;;;5093745;28;20457;-88
2022/07/22 03:58:55;;;;;;;13.45;6.10;;;20.40;99.90;;;;;;5075605;28;20024;-89
2022/07/22 04:01:21;;;;;;;9.32;5.97;;;20.20;99.90;;;;;;5075839;28;20055;-89
2022/07/22 04:03:48;;;;;;;7.60;5.28;;;20.30;99.90;;;;;;5075435;28;20028;-89
2022/07/22 04:06:14;;;;;;;9.10;5.50;;;20.20;99.90;;;;;;5075684;28;20089;-88
2022/07/22 04:08:39;;;;;;;7.13;5.20;;;20.20;99.90;;;;;;5075704;28;20389;-88
2022/07/22 04:11:05;;;;;;;6.93;5.15;;;20.20;99.90;;;;;;5075140;28;20024;-88
2022/07/22 04:13:31;;;;;;;10.10;5.53;;;20.20;99.90;;;;;;5075655;28;20465;-88
2022/07/22 04:15:57;;;;;;;6.93;5.38;;;20.20;99.90;;;;;;5078564;28;20495;-88
2022/07/22 04:18:22;;;;;;;7.80;5.07;;;20.20;99.90;;;;;;5078841;28;20035;-88
2022/07/22 04:20:48;;;;;;;7.13;4.97;;;20.20;99.90;;;;;;5078598;28;20058;-89
2022/07/22 04:23:14;;;;;;;8.32;5.30;;;20.20;99.90;;;;;;5079312;28;20039;-88
2022/07/22 04:25:40;;;;;;;7.38;5.13;;;20.20;99.90;;;;;;5079085;28;20425;-88
2022/07/22 04:28:06;;;;;;;9.07;5.40;;;20.20;99.90;;;;;;5078474;28;20070;-89
2022/07/22 04:30:32;;;;;;;8.55;5.45;;;20.30;99.90;;;;;;5074588;28;20536;-89
2022/07/22 04:32:58;;;;;;;9.48;5.10;;;20.30;99.90;;;;;;5058176;28;20033;-88
2022/07/22 04:35:24;;;;;;;9.73;5.47;;;20.30;99.90;;;;;;5058029;28;20485;-89
2022/07/22 04:37:50;;;;;;;6.28;5.03;;;20.30;99.90;;;;;;5057860;28;20043;-88
2022/07/22 04:40:16;;;;;;;9.48;5.57;;;20.30;99.90;;;;;;5058481;28;20104;-88
2022/07/22 04:42:41;;;;;;;8.70;4.95;;;20.40;99.90;;;;;;5058222;28;20154;-88
2022/07/22 04:45:08;;;;;;;13.57;5.57;;;20.40;99.90;;;;;;5057138;28;20024;-88
2022/07/22 04:47:34;;;;;;;7.65;5.20;;;20.40;99.90;;;;;;5076290;28;20027;-88
2022/07/22 04:49:59;;;;;;;8.95;5.65;;;20.40;99.90;;;;;;5057761;28;20032;-88
2022/07/22 04:52:25;;;;;;;6.85;5.13;;;20.40;99.90;;;;;;5058119;28;20043;-87
2022/07/22 04:54:51;;;;;;;10.20;5.50;;;20.40;99.90;;;;;;5054700;28;20119;-88
2022/07/22 04:57:16;;;;;;;8.32;5.50;;;20.40;99.90;;;;;;5057993;28;20020;-88
2022/07/22 04:59:42;;;;;;;7.57;5.43;;;20.50;99.90;;;;;;5056951;28;20029;-88
2022/07/22 05:02:08;;;;;;;8.77;5.43;;;20.50;99.90;;;;;;5057045;28;20021;-88
2022/07/22 05:04:34;;;;;;;8.32;5.13;;;20.50;99.90;;;;;;5076125;28;20481;-88
2022/07/22 05:06:59;;;;;;;8.65;5.60;;;20.50;99.90;;;;;;5057987;28;20035;-88
2022/07/22 05:09:25;;;;;;;8.45;5.20;;;20.60;99.90;;;;;;5075938;28;20028;-89
2022/07/22 05:11:50;;;;;;;10.55;4.95;;;20.50;99.90;;;;;;5057710;28;20025;-89
2022/07/22 05:14:16;;;;;;;8.60;5.05;;;20.50;99.90;;;;;;5075669;28;20422;-90
2022/07/22 05:16:42;;;;;;;7.43;5.40;;;20.60;99.90;;;;;;5058232;28;20033;-88
2022/07/22 05:19:07;;;;;;;8.13;5.32;;;20.60;99.90;;;;;;5075478;28;20157;-89
2022/07/22 05:21:33;;;;;;;8.23;5.30;;;20.60;99.90;;;;;;5058186;28;20025;-89
2022/07/22 05:23:59;;;;;;;7.25;4.70;;;20.60;99.90;;;;;;5075240;28;20040;-89
2022/07/22 05:26:25;;;;;;;6.80;4.95;;;20.60;99.90;;;;;;5056806;28;20041;-89
2022/07/22 05:28:50;;;;;;;8.70;4.97;;;20.60;99.90;;;;;;5058224;28;20025;-89
2022/07/22 05:31:16;;;;;;;9.43;5.18;;;20.60;99.90;;;;;;5057896;28;20028;-89
2022/07/22 05:33:42;;;;;;;6.95;5.22;;;20.70;99.90;;;;;;5057405;28;20025;-89
2022/07/22 05:36:09;;;;;;;7.50;5.00;;;20.70;99.90;;;;;;5074990;28;20074;-88
2022/07/22 05:38:35;;;;;;;8.43;5.07;;;20.70;99.90;;;;;;5057596;28;20064;-89
2022/07/22 05:41:01;;;;;;;9.13;5.97;;;20.70;99.90;;;;;;5057608;28;20031;-89
2022/07/22 05:43:27;;;;;;;7.70;5.45;;;20.70;99.90;;;;;;5057758;28;20059;-89
2022/07/22 05:45:53;;;;;;;10.73;4.65;;;20.70;99.90;;;;;;5074862;28;20029;-89
2022/07/22 05:48:18;;;;;;;10.40;5.13;;;20.70;99.90;;;;;;5075379;28;20377;-90
2022/07/22 05:50:44;;;;;;;7.40;5.13;;;20.70;99.90;;;;;;5074943;28;20483;-89
2022/07/22 05:53:10;;;;;;;12.02;5.28;;;20.70;99.90;;;;;;5056799;28;20028;-89
2022/07/22 05:55:35;;;;;;;7.63;4.97;;;20.70;99.90;;;;;;5057296;28;20024;-89
2022/07/22 05:58:01;;;;;;;7.38;4.82;;;20.80;99.90;;;;;;5057067;28;20020;-89
2022/07/22 06:00:27;;;;;;;7.38;4.90;;;20.80;99.90;;;;;;5056904;28;20032;-89
2022/07/22 06:02:53;;;;;;;8.70;5.03;;;20.80;99.90;;;;;;5057534;28;20033;-88
2022/07/22 06:05:19;;;;;;;10.40;5.45;;;20.80;99.90;;;;;;5057180;28;20123;-88
2022/07/22 06:07:45;;;;;;;9.38;5.45;;;20.80;99.90;;;;;;5074535;28;20021;-89
2022/07/22 06:10:11;;;;;;;7.60;4.78;;;20.80;99.90;;;;;;5057181;28;20036;-89
2022/07/22 06:12:37;;;;;;;7.57;4.43;;;20.80;99.90;;;;;;5057301;28;20043;-89
2022/07/22 06:15:04;;;;;;;11.02;4.55;;;20.80;99.90;;;;;;5074623;28;20086;-88
2022/07/22 06:17:30;;;;;;;8.10;4.55;;;20.90;99.90;;;;;;5055812;28;20434;-90
2022/07/22 06:19:55;;;;;;;6.80;4.57;;;20.90;99.90;;;;;;5074224;28;20104;-88
2022/07/22 06:22:22;;;;;;;7.55;4.82;;;21.00;99.90;;;;;;5057058;28;20457;-89
2022/07/22 06:24:48;;;;;;;7.55;5.00;;;21.00;99.90;;;;;;5056716;28;20033;-88
2022/07/22 06:27:14;;;;;;;8.68;4.93;;;21.10;99.90;;;;;;5056013;28;20052;-89
2022/07/22 06:29:40;;;;;;;8.60;4.32;;;21.10;99.90;;;;;;5056984;28;20027;-88
2022/07/22 06:32:06;;;;;;;9.18;4.40;;;21.10;99.90;;;;;;5056382;28;20059;-89
2022/07/22 06:34:32;;;;;;;6.45;4.15;;;21.10;99.90;;;;;;5056756;28;20035;-88
2022/07/22 06:36:58;;;;;;;7.93;4.78;;;21.20;99.90;;;;;;5056146;28;20040;-88
2022/07/22 06:39:23;;;;;;;6.53;4.47;;;21.20;99.90;;;;;;5073879;28;20028;-88
2022/07/22 06:41:49;;;;;;;7.20;4.05;;;21.30;99.90;;;;;;5073414;28;20454;-88
2022/07/22 06:44:14;;;;;;;7.13;4.43;;;21.30;99.90;;;;;;5055548;28;20028;-89
2022/07/22 06:46:40;;;;;;;6.72;4.47;;;21.30;99.90;;;;;;5055929;28;20021;-89
2022/07/22 06:49:06;;;;;;;7.28;4.40;;;21.30;99.90;;;;;;5055735;28;20024;-89
2022/07/22 06:51:32;;;;;;;5.32;3.92;;;21.40;99.90;;;;;;5073605;28;20024;-89
2022/07/22 06:53:57;;;;;;;5.75;4.07;;;21.50;99.90;;;;;;5072848;28;20091;-88
2022/07/22 06:56:23;;;;;;;7.43;3.97;;;21.50;99.90;;;;;;5073509;28;20111;-89
2022/07/22 06:58:49;;;;;;;5.90;3.80;;;21.50;99.90;;;;;;5073203;28;20431;-88
2022/07/22 07:01:14;;;;;;;6.00;4.00;;;21.50;99.90;;;;;;5055135;28;20028;-90
2022/07/22 07:03:40;;;;;;;5.63;4.13;;;21.60;99.90;;;;;;5055580;28;20060;-89
2022/07/22 07:06:11;;;;;;;8.63;3.83;;;21.60;99.90;;;;;;5055035;28;20082;-89
2022/07/22 07:08:40;;;;;;;6.68;5.03;;;21.70;99.90;;;;;;5036395;28;20163;-88
2022/07/22 07:11:06;;;;;;;7.63;4.10;;;21.70;99.90;;;;;;5036094;28;20505;-88
2022/07/22 07:13:32;;;;;;;6.47;4.30;;;21.80;99.90;;;;;;5056792;28;20037;-90
2022/07/22 07:15:58;;;;;;;7.15;4.68;;;21.80;99.90;;;;;;5054255;28;20037;-88
2022/07/22 07:18:24;;;;;;;7.80;4.60;;;21.90;99.90;;;;;;5072941;28;20389;-89
2022/07/22 07:20:49;;;;;;;6.90;4.20;;;21.90;99.90;;;;;;5056185;28;20450;-89
2022/07/22 07:23:15;;;;;;;7.28;4.65;;;21.90;99.90;;;;;;5056115;28;20029;-90
2022/07/22 07:25:41;;;;;;;8.73;5.10;;;22.00;99.90;;;;;;5056091;28;20060;-90
2022/07/22 07:28:07;;;;;;;8.30;4.63;;;21.90;99.90;;;;;;5073541;28;20184;-89
2022/07/22 07:30:33;;;;;;;8.25;4.43;;;22.00;99.90;;;;;;5056001;28;20485;-89
2022/07/22 07:33:02;;;;;;;12.68;5.40;;;22.00;99.90;;;;;;5073241;28;20033;-88
2022/07/22 07:35:28;;;;;;;7.05;4.63;;;22.00;99.90;;;;;;5073646;28;20036;-89
2022/07/22 07:37:54;;;;;;;9.75;5.05;;;22.10;99.90;;;;;;5056059;28;20063;-89
2022/07/22 07:40:20;;;;;;;7.65;4.72;;;22.00;99.90;;;;;;5055505;28;20029;-89
2022/07/22 07:42:45;;;;;;;6.35;4.70;;;22.10;99.90;;;;;;5056287;28;20077;-90
2022/07/22 07:45:11;;;;;;;6.93;4.75;;;22.20;99.90;;;;;;5055521;28;20519;-88
2022/07/22 07:47:37;;;;;;;8.35;4.80;;;22.20;99.90;;;;;;5074002;28;20017;-89
2022/07/22 07:50:04;;;;;;;8.45;4.70;;;22.20;99.90;;;;;;5058279;28;20111;-89
2022/07/22 07:52:30;;;;;;;6.72;5.22;;;22.20;99.90;;;;;;5059723;28;20024;-89
2022/07/22 07:54:56;;;;;;;8.93;5.75;;;22.20;99.90;;;;;;5059673;28;20028;-89
2022/07/22 07:57:22;;;;;;;8.75;5.10;;;22.20;99.90;;;;;;5076488;28;20024;-88
2022/07/22 07:59:47;;;;;;;7.95;4.88;;;22.30;99.90;;;;;;5059401;28;20107;-90
2022/07/22 08:02:13;;;;;;;7.80;4.65;;;22.30;99.90;;;;;;5059112;28;20055;-90
2022/07/22 08:04:39;;;;;;;6.60;4.93;;;22.40;99.90;;;;;;5059452;28;20036;-89
2022/07/22 08:07:06;;;;;;;8.98;5.00;;;22.40;99.90;;;;;;5058602;28;20343;-89
2022/07/22 08:09:35;;;;;;;8.70;4.60;;;22.50;99.90;;;;;;5077406;28;20093;-88
2022/07/22 08:12:01;;;;;;;7.38;5.18;;;22.50;99.90;;;;;;5059654;28;20017;-90
2022/07/22 08:14:26;;;;;;;9.48;5.88;;;22.60;99.90;;;;;;5076799;28;20021;-89
2022/07/22 08:16:52;;;;;;;8.88;5.38;;;22.70;99.90;;;;;;5059552;28;20027;-89
2022/07/22 08:19:18;;;;;;;9.32;5.70;;;22.70;99.90;;;;;;5076345;28;20024;-90
2022/07/22 08:21:43;;;;;;;7.47;5.30;;;22.70;99.90;;;;;;5059237;28;20043;-89
2022/07/22 08:24:10;;;;;;;9.18;5.57;;;22.80;99.90;;;;;;5058860;28;20042;-90
2022/07/22 08:26:36;;;;;;;10.13;5.32;;;22.80;99.90;;;;;;5076550;28;20048;-89
2022/07/22 08:29:03;;;;;;;9.45;5.47;;;22.80;99.90;;;;;;5059368;28;20026;-88
2022/07/22 08:31:29;;;;;;;10.73;5.18;;;22.90;99.90;;;;;;5059343;28;20044;-89
2022/07/22 08:33:55;;;;;;;8.45;5.65;;;22.90;99.90;;;;;;5058590;28;20119;-89
2022/07/22 08:36:20;;;;;;;11.07;5.70;;;23.00;99.90;;;;;;5058624;28;20063;-88
2022/07/22 08:38:46;;;;;;;8.82;6.20;;;23.00;99.90;;;;;;5059247;28;20108;-87
2022/07/22 08:41:14;;;;;;;8.85;5.63;;;23.00;99.70;;;;;;5058282;28;20048;-88
2022/07/22 08:43:42;;;;;;;9.30;5.95;;;23.00;99.80;;;;;;5059006;28;20051;-88
2022/07/22 08:46:07;;;;;;;9.00;5.82;;;23.10;99.60;;;;;;5058393;28;20074;-88
2022/07/22 08:48:37;;;;;;;7.53;5.43;;;23.10;99.60;;;;;;5059090;28;20024;-89
2022/07/22 08:51:03;;;;;;;10.82;5.88;;;23.20;99.70;;;;;;5076698;28;20099;-88
2022/07/22 08:53:29;;;;;;;8.40;5.63;;;23.20;99.50;;;;;;5058886;28;20028;-88
2022/07/22 08:55:54;;;;;;;9.35;5.78;;;23.30;99.40;;;;;;5076465;28;20510;-89
2022/07/22 08:58:20;;;;;;;9.38;6.25;;;23.20;99.30;;;;;;5058096;28;20020;-89
2022/07/22 09:00:46;;;;;;;8.90;5.57;;;23.30;99.40;;;;;;5058427;28;20394;-87
2022/07/22 09:03:20;;;;;;;8.40;5.70;;;23.30;99.30;;;;;;5057650;28;20052;-89
2022/07/22 09:05:46;;;;;;;8.20;6.30;;;23.40;99.30;;;;;;5058400;28;20070;-89
2022/07/22 09:08:12;;;;;;;9.23;5.35;;;23.40;99.20;;;;;;5075733;28;20052;-91
2022/07/22 09:10:38;;;;;;;8.15;6.05;;;23.50;99.20;;;;;;5058129;28;20449;-90
2022/07/22 09:13:07;;;;;;;8.10;4.85;;;23.60;99.10;;;;;;5076067;28;20021;-90
2022/07/22 09:15:39;;;;;;;8.05;5.47;;;23.70;99.20;;;;;;5075779;28;20024;-90
2022/07/22 09:18:05;;;;;;;7.13;4.80;;;23.80;98.90;;;;;;5075856;28;20012;-90
2022/07/22 09:20:32;;;;;;;7.50;5.07;;;23.80;98.50;;;;;;5075534;28;20099;-90
2022/07/22 09:22:58;;;;;;;6.72;5.20;;;23.80;98.40;;;;;;5057775;28;20021;-89
2022/07/22 09:25:33;;;;;;;7.00;5.13;;;23.80;98.30;;;;;;5057422;28;20150;-91
2022/07/22 09:28:05;;;;;;;7.07;5.38;;;23.90;98.30;;;;;;5057729;28;20056;-89
2022/07/22 09:30:31;;;;;;;7.45;5.13;;;24.00;98.30;;;;;;5074948;28;20033;-91
2022/07/22 09:32:57;;;;;;;7.55;5.10;;;24.10;97.80;;;;;;5057782;28;20480;-89
2022/07/22 09:35:24;;;;;;;8.75;5.43;;;24.10;97.60;;;;;;5057260;28;20033;-89
2022/07/22 09:37:56;;;;;;;9.57;5.50;;;24.10;97.40;;;;;;5073922;28;20048;-91
2022/07/22 09:40:24;;;;;;;7.07;5.18;;;24.10;97.50;;;;;;5057310;28;20032;-90
2022/07/22 09:42:56;;;;;;;11.65;5.13;;;24.20;97.50;;;;;;5057637;28;20465;-90
2022/07/22 09:45:25;;;;;;;9.43;5.05;;;24.30;97.30;;;;;;5057384;28;20025;-90
2022/07/22 09:47:51;;;;;;;6.22;5.30;;;24.30;97.00;;;;;;5057678;28;20024;-89
2022/07/22 09:50:28;;;;;;;8.30;5.40;;;24.30;97.00;;;;;;5057011;28;20025;-88
2022/07/22 09:52:57;;;;;;;9.98;5.75;;;24.40;96.90;;;;;;5057640;28;20021;-89
2022/07/22 09:55:25;;;;;;;8.20;5.18;;;24.50;97.00;;;;;;5057009;28;20025;-88
2022/07/22 09:57:52;;;;;;;7.47;4.95;;;24.60;96.90;;;;;;5075070;28;20143;-88
2022/07/22 10:00:20;;;;;;;7.38;5.28;;;24.60;96.80;;;;;;5074480;28;20042;-88
2022/07/22 10:02:50;;;;;;;6.75;5.10;;;24.60;96.50;;;;;;5057231;28;20024;-88
2022/07/22 10:05:20;;;;;;;7.68;5.05;;;24.70;96.50;;;;;;5056167;28;20104;-88
2022/07/22 10:07:46;;;;;;;8.05;5.20;;;24.80;96.20;;;;;;5056898;28;20032;-89
2022/07/22 10:10:15;;;;;;;8.38;5.50;;;24.90;96.10;;;;;;5074544;28;20074;-88
2022/07/22 10:12:41;;;;;;;7.60;5.40;;;24.80;95.90;;;;;;5056382;28;20111;-88
2022/07/22 10:15:08;;;;;;;6.13;4.97;;;25.00;95.80;;;;;;5056995;28;20024;-89
2022/07/22 10:17:41;;;;;;;7.90;5.65;;;25.00;95.70;;;;;;5056954;28;20469;-89
2022/07/22 10:20:07;;;;;;;10.27;5.60;;;25.10;95.30;;;;;;5056903;28;20016;-89
2022/07/22 10:22:39;;;;;;;14.45;5.65;;;25.10;95.20;;;;;;5056190;28;20016;-89
2022/07/22 10:25:06;;;;;;;8.80;4.85;;;25.10;94.70;;;;;;5056886;28;20029;-89
2022/07/22 10:27:44;;;;;;;8.98;5.63;;;25.20;94.80;;;;;;5073950;28;20055;-89
2022/07/22 10:30:10;;;;;;;8.35;5.63;;;25.40;94.80;;;;;;5056439;28;20035;-89
2022/07/22 10:32:36;;;;;;;8.27;4.88;;;25.50;94.50;;;;;;5056626;28;20537;-89
2022/07/22 10:35:03;;;;;;;8.38;5.28;;;25.50;94.20;;;;;;5074318;28;20115;-89
2022/07/22 10:37:35;;;;;;;24.38;6.85;;;25.40;94.10;;;;;;5056040;28;20024;-88
2022/07/22 10:40:20;;;;;;;8.27;4.93;;;25.60;93.90;;;;;;5056854;28;20032;-88
2022/07/22 10:43:02;;;;;;;7.15;4.50;;;25.50;93.40;;;;;;5074452;28;20028;-89
2022/07/22 10:45:35;;;;;;;23.52;7.88;;;25.50;93.50;;;;;;5056354;28;20107;-89
2022/07/22 10:48:09;;;;;;;10.57;5.50;;;25.50;93.70;;;;;;5056665;28;20172;-88
2022/07/22 10:50:37;;;;;;;6.40;4.55;;;25.60;94.30;;;;;;5074135;28;20016;-89
2022/07/22 10:53:04;;;;;;;7.53;4.57;;;25.70;94.10;;;;;;5056525;28;20024;-90
2022/07/22 10:55:31;;;;;;;6.32;4.80;;;25.80;94.00;;;;;;5055806;28;20107;-88
2022/07/22 10:57:56;;;;;;;8.00;5.18;;;26.00;93.40;;;;;;5056219;28;20028;-88
2022/07/22 11:00:22;;;;;;;8.35;5.05;;;26.00;93.10;;;;;;5073636;28;20021;-88
2022/07/22 11:02:48;;;;;;;6.90;5.07;;;26.00;93.30;;;;;;5056397;28;20032;-88
2022/07/22 11:05:23;;;;;;;6.63;4.78;;;26.00;93.00;;;;;;5055778;28;20020;-89
2022/07/22 11:07:49;;;;;;;5.97;4.35;;;26.10;92.80;;;;;;5056029;28;20035;-88
2022/07/22 11:10:18;;;;;;;6.55;4.75;;;26.10;92.50;;;;;;5055734;28;20028;-89
2022/07/22 11:12:44;;;;;;;9.13;4.90;;;26.20;92.30;;;;;;5055959;28;20070;-89
2022/07/22 11:15:10;;;;;;;7.40;4.63;;;26.30;92.10;;;;;;5073873;28;20032;-89
2022/07/22 11:17:37;;;;;;;5.68;4.38;;;26.40;91.80;;;;;;5055751;28;20024;-88
2022/07/22 11:20:06;;;;;;;9.93;4.20;;;26.50;91.50;;;;;;5056133;28;20112;-89
2022/07/22 11:22:32;;;;;;;8.55;4.53;;;26.70;91.50;;;;;;5073285;28;20213;-89
2022/07/22 11:25:00;;;;;;;6.43;4.65;;;26.70;91.20;;;;;;5076329;28;20020;-89
2022/07/22 11:27:26;;;;;;;8.73;5.07;;;26.70;91.00;;;;;;5077647;28;20411;-89
2022/07/22 11:29:53;;;;;;;7.90;5.15;;;26.80;92.40;;;;;;5060310;28;20016;-89
2022/07/22 11:32:21;;;;;;;6.88;4.80;;;26.80;92.80;;;;;;5059466;28;20055;-89
2022/07/22 11:34:47;;;;;;;6.45;4.43;;;26.90;91.80;;;;;;5059704;28;20111;-89
2022/07/22 11:37:14;;;;;;;7.50;4.70;;;27.10;91.60;;;;;;5077959;28;20369;-88
2022/07/22 11:39:40;;;;;;;7.20;4.80;;;27.10;92.10;;;;;;5060043;28;20024;-89
2022/07/22 11:42:06;;;;;;;6.97;4.57;;;27.20;92.60;;;;;;5061973;28;20036;-89
2022/07/22 11:44:34;;;;;;;5.82;4.60;;;27.30;91.00;;;;;;5080841;28;20024;-89
2022/07/22 11:47:00;;;;;;;8.75;4.43;;;27.40;90.60;;;;;;5060260;28;20020;-89
2022/07/22 11:49:29;;;;;;;8.30;4.78;;;27.40;90.80;;;;;;5059677;28;20457;-89
2022/07/22 11:51:55;;;;;;;8.73;5.15;;;27.30;91.50;;;;;;5078844;28;20119;-89
2022/07/22 11:54:21;;;;;;;8.35;4.38;;;27.40;91.40;;;;;;5059269;28;20047;-90
2022/07/22 11:56:47;;;;;;;5.10;4.35;;;27.40;91.40;;;;;;5059651;28;20029;-89
2022/07/22 11:59:15;;;;;;;6.22;4.90;;;27.40;91.70;;;;;;5059468;28;20074;-90
2022/07/22 12:01:41;;;;;;;8.25;4.68;;;27.40;91.50;;;;;;5059725;28;20025;-89
2022/07/22 12:04:12;;;;;;;8.07;4.93;;;27.50;91.50;;;;;;5059521;28;20024;-88
2022/07/22 12:06:41;;;;;;;;;;;27.50;91.40;;;;;;5077241;28;20021;-88
2022/07/22 12:09:10;;;;;;;6.18;4.20;;;27.60;91.50;;;;;;5059424;28;19995;-89
2022/07/22 12:11:39;;;;;;;10.15;4.90;;;27.60;91.30;;;;;;5076438;28;20094;-89
2022/07/22 12:14:10;;;;;;;6.00;4.43;;;27.70;91.10;;;;;;5058909;28;20020;-88
2022/07/22 12:16:36;;;;;;;6.50;4.93;;;27.70;90.60;;;;;;5058710;28;20343;-89
2022/07/22 12:19:19;;;;;;;7.93;5.40;;;27.70;90.60;;;;;;5059102;28;20107;-88
2022/07/22 12:21:54;;;;;;;7.28;5.00;;;27.80;90.20;;;;;;5076803;28;20024;-88
2022/07/22 12:24:56;;;;;;;7.03;5.30;;;27.80;90.60;;;;;;5058804;28;20066;-88
2022/07/22 12:27:22;;;;;;;6.78;4.70;;;27.90;90.10;;;;;;5076102;28;20064;-87
2022/07/22 12:29:49;;;;;;;6.20;4.80;;;28.00;89.40;;;;;;5059019;28;20056;-88
2022/07/22 12:32:16;;;;;;;9.15;5.05;;;28.10;89.40;;;;;;5059016;28;20025;-88
2022/07/22 12:34:56;;;;;;;5.85;4.40;;;28.10;88.70;;;;;;5058567;28;20112;-88
2022/07/22 12:37:43;;;;;;;5.05;4.18;;;28.20;88.40;;;;;;5058392;28;20426;-88
2022/07/22 12:40:18;;;;;;;8.85;4.22;;;28.20;88.30;;;;;;5058539;28;20115;-88
2022/07/22 12:42:58;;;;;;;6.38;4.65;;;28.30;87.90;;;;;;5059061;28;20503;-88